createdAt,value
2018-11-02T00:00:06.891Z,9.01
2018-11-02T00:01:12.370Z,9.15
2018-11-02T00:02:18.585Z,9.03
2018-11-02T00:03:24.774Z,8.98
2018-11-02T00:04:30.988Z,8.85
2018-11-02T00:05:37.181Z,8.65
2018-11-02T00:06:43.334Z,8.46
2018-11-02T00:07:49.512Z,8.30
2018-11-02T00:08:55.737Z,8.17
2018-11-02T00:10:01.919Z,8.05
2018-11-02T00:11:08.163Z,8.18
2018-11-02T00:12:14.442Z,8.15
2018-11-02T00:13:20.793Z,8.28
2018-11-02T00:14:26.967Z,8.41
2018-11-02T00:15:33.147Z,8.25
2018-11-02T00:16:41.841Z,8.20
2018-11-02T00:17:48.093Z,8.20
2018-11-02T00:18:54.289Z,8.11
2018-11-02T00:20:00.449Z,8.01
2018-11-02T00:21:06.673Z,8.03
2018-11-02T00:22:12.884Z,7.99
2018-11-02T00:23:19.064Z,7.99
2018-11-02T00:24:25.062Z,8.05
2018-11-02T00:25:31.492Z,8.01
2018-11-02T00:26:37.689Z,8.00
2018-11-02T00:27:43.644Z,7.88
2018-11-02T00:28:49.873Z,7.83
2018-11-02T00:29:56.065Z,8.13
2018-11-02T00:31:02.288Z,7.94
2018-11-02T00:32:08.596Z,8.02
2018-11-02T00:33:15.045Z,8.02
2018-11-02T00:34:21.256Z,8.06
2018-11-02T00:35:27.520Z,8.08
2018-11-02T00:36:33.772Z,8.03
2018-11-02T00:37:39.995Z,8.12
2018-11-02T00:38:46.234Z,8.03
2018-11-02T00:39:52.476Z,7.97
2018-11-02T00:40:58.674Z,7.80
2018-11-02T00:42:04.262Z,7.69
2018-11-02T00:43:10.638Z,7.60
2018-11-02T00:44:16.864Z,7.61
2018-11-02T00:45:23.062Z,7.65
2018-11-02T00:46:29.267Z,7.77
2018-11-02T00:47:35.982Z,7.71
2018-11-02T00:48:42.212Z,7.61
2018-11-02T00:49:48.428Z,7.66
2018-11-02T00:50:54.633Z,7.65
2018-11-02T00:52:00.875Z,7.63
2018-11-02T00:53:07.348Z,7.59
2018-11-02T00:54:13.756Z,7.54
2018-11-02T00:55:20.209Z,7.44
2018-11-02T00:56:26.650Z,7.40
2018-11-02T00:57:33.060Z,7.34
2018-11-02T00:58:47.060Z,7.17
2018-11-02T00:59:53.307Z,7.21
2018-11-02T01:00:59.516Z,7.03
2018-11-02T01:02:05.082Z,7.01
2018-11-02T01:03:11.380Z,7.03
2018-11-02T01:04:17.589Z,6.94
2018-11-02T01:05:23.819Z,6.99
2018-11-02T01:06:30.069Z,7.04
2018-11-02T01:07:35.973Z,7.08
2018-11-02T01:08:42.428Z,6.88
2018-11-02T01:09:48.634Z,6.80
2018-11-02T01:10:54.869Z,6.87
2018-11-02T01:12:01.108Z,6.96
2018-11-02T01:13:07.296Z,7.07
2018-11-02T01:14:13.508Z,7.12
2018-11-02T01:15:19.996Z,7.46
2018-11-02T01:16:26.500Z,7.51
2018-11-02T01:17:32.897Z,7.33
2018-11-02T01:18:39.363Z,7.42
2018-11-02T01:19:49.759Z,7.57
2018-11-02T01:20:55.582Z,7.83
2018-11-02T01:22:01.822Z,7.88
2018-11-02T01:23:07.717Z,7.76
2018-11-02T01:24:13.962Z,7.84
2018-11-02T01:25:20.159Z,7.91
2018-11-02T01:26:26.405Z,8.03
2018-11-02T01:27:32.607Z,8.07
2018-11-02T01:28:38.822Z,7.98
2018-11-02T01:29:45.034Z,8.12
2018-11-02T01:30:51.484Z,8.20
2018-11-02T01:31:57.944Z,8.25
2018-11-02T01:33:03.983Z,8.19
2018-11-02T01:34:10.421Z,8.19
2018-11-02T01:35:16.852Z,8.26
2018-11-02T01:36:23.276Z,8.32
2018-11-02T01:37:29.713Z,8.31
2018-11-02T01:38:36.176Z,8.24
2018-11-02T01:39:42.620Z,8.17
2018-11-02T01:40:51.677Z,8.19
2018-11-02T01:41:58.114Z,8.10
2018-11-02T01:43:04.202Z,7.94
2018-11-02T01:44:10.436Z,7.94
2018-11-02T01:45:16.666Z,7.71
2018-11-02T01:46:22.901Z,7.55
2018-11-02T01:47:29.126Z,7.52
2018-11-02T01:48:35.328Z,7.50
2018-11-02T01:49:42.068Z,7.74
2018-11-02T01:50:48.345Z,7.99
2018-11-02T01:51:54.794Z,8.07
2018-11-02T01:53:01.226Z,7.98
2018-11-02T01:54:07.463Z,7.99
2018-11-02T01:55:13.889Z,7.98
2018-11-02T01:56:21.190Z,8.17
2018-11-02T01:57:27.417Z,8.24
2018-11-02T01:58:33.637Z,7.97
2018-11-02T01:59:39.828Z,7.93
2018-11-02T02:00:46.210Z,7.99
2018-11-02T02:01:53.301Z,8.04
2018-11-02T02:02:59.499Z,8.09
2018-11-02T02:04:05.344Z,8.02
2018-11-02T02:05:11.785Z,8.00
2018-11-02T02:06:18.256Z,7.89
2018-11-02T02:07:24.637Z,7.86
2018-11-02T02:08:31.026Z,7.85
2018-11-02T02:09:37.433Z,7.79
2018-11-02T02:10:43.610Z,7.71
2018-11-02T02:11:49.537Z,7.62
2018-11-02T02:12:55.759Z,7.84
2018-11-02T02:14:02.191Z,7.82
2018-11-02T02:15:08.233Z,7.74
2018-11-02T02:16:14.599Z,7.67
2018-11-02T02:17:21.057Z,7.63
2018-11-02T02:18:27.465Z,7.55
2018-11-02T02:19:33.566Z,7.50
2018-11-02T02:20:39.968Z,7.49
2018-11-02T02:21:46.412Z,7.59
2018-11-02T02:22:52.821Z,7.56
2018-11-02T02:23:59.224Z,7.55
2018-11-02T02:25:04.926Z,7.71
2018-11-02T02:26:11.363Z,7.70
2018-11-02T02:27:17.764Z,7.87
2018-11-02T02:28:23.812Z,7.83
2018-11-02T02:29:30.260Z,7.79
2018-11-02T02:30:36.673Z,7.73
2018-11-02T02:31:43.110Z,7.55
2018-11-02T02:32:49.529Z,7.60
2018-11-02T02:33:56.259Z,7.54
2018-11-02T02:35:02.655Z,7.52
2018-11-02T02:36:09.067Z,7.53
2018-11-02T02:37:15.529Z,7.47
2018-11-02T02:38:21.954Z,7.47
2018-11-02T02:39:28.348Z,7.42
2018-11-02T02:40:34.786Z,7.42
2018-11-02T02:41:41.231Z,7.40
2018-11-02T02:42:47.260Z,7.48
2018-11-02T02:43:53.439Z,7.44
2018-11-02T02:44:59.688Z,7.48
2018-11-02T02:46:05.872Z,7.40
2018-11-02T02:47:12.101Z,7.17
2018-11-02T02:48:18.288Z,7.12
2018-11-02T02:49:24.485Z,7.07
2018-11-02T02:50:30.740Z,6.88
2018-11-02T02:51:36.972Z,6.89
2018-11-02T02:52:42.952Z,7.00
2018-11-02T02:53:49.181Z,6.82
2018-11-02T02:54:55.397Z,6.72
2018-11-02T02:56:01.609Z,6.82
2018-11-02T02:57:07.843Z,6.81
2018-11-02T02:58:14.038Z,6.84
2018-11-02T02:59:20.456Z,6.83
2018-11-02T03:00:26.685Z,6.67
2018-11-02T03:01:32.881Z,6.71
2018-11-02T03:02:39.291Z,6.55
2018-11-02T03:03:45.291Z,6.57
2018-11-02T03:04:56.682Z,6.58
2018-11-02T03:06:02.929Z,6.62
2018-11-02T03:07:08.754Z,6.54
2018-11-02T03:08:14.981Z,6.48
2018-11-02T03:09:21.193Z,6.51
2018-11-02T03:10:27.461Z,6.55
2018-11-02T03:11:33.913Z,6.43
2018-11-02T03:12:40.144Z,6.37
2018-11-02T03:13:46.386Z,6.32
2018-11-02T03:14:52.797Z,6.33
2018-11-02T03:15:59.003Z,6.44
2018-11-02T03:17:04.865Z,6.57
2018-11-02T03:18:11.034Z,6.63
2018-11-02T03:19:17.452Z,6.65
2018-11-02T03:20:23.725Z,6.70
2018-11-02T03:21:30.165Z,6.71
2018-11-02T03:22:36.392Z,6.83
2018-11-02T03:23:42.723Z,6.82
2018-11-02T03:24:48.921Z,6.78
2018-11-02T03:25:55.186Z,6.73
2018-11-02T03:27:01.357Z,6.68
2018-11-02T03:28:07.766Z,6.65
2018-11-02T03:29:14.017Z,6.67
2018-11-02T03:30:20.258Z,6.56
2018-11-02T03:31:26.521Z,6.43
2018-11-02T03:32:32.778Z,6.43
2018-11-02T03:33:38.995Z,6.37
2018-11-02T03:34:45.213Z,6.37
2018-11-02T03:35:51.429Z,6.33
2018-11-02T03:36:57.693Z,6.26
2018-11-02T03:38:03.931Z,6.33
2018-11-02T03:39:10.153Z,6.35
2018-11-02T03:40:16.060Z,6.39
2018-11-02T03:41:22.273Z,6.74
2018-11-02T03:42:28.136Z,6.94
2018-11-02T03:43:34.349Z,6.93
2018-11-02T03:44:40.577Z,6.88
2018-11-02T03:45:46.785Z,6.92
2018-11-02T03:46:53.008Z,6.99
2018-11-02T03:47:59.265Z,7.18
2018-11-02T03:49:05.133Z,7.31
2018-11-02T03:50:11.316Z,7.23
2018-11-02T03:51:17.206Z,7.28
2018-11-02T03:52:23.444Z,7.12
2018-11-02T03:53:29.901Z,7.09
2018-11-02T03:54:36.091Z,6.90
2018-11-02T03:55:43.614Z,6.75
2018-11-02T03:56:49.982Z,6.63
2018-11-02T03:57:56.262Z,6.49
2018-11-02T03:59:02.513Z,6.48
2018-11-02T04:00:08.083Z,6.39
2018-11-02T04:01:14.329Z,6.34
2018-11-02T04:02:20.524Z,6.31
2018-11-02T04:03:26.744Z,6.26
2018-11-02T04:04:33.169Z,6.23
2018-11-02T04:05:39.115Z,6.16
2018-11-02T04:06:45.328Z,6.17
2018-11-02T04:07:51.562Z,6.15
2018-11-02T04:08:57.780Z,6.14
2018-11-02T04:10:03.833Z,6.12
2018-11-02T04:11:10.114Z,6.16
2018-11-02T04:12:16.335Z,6.19
2018-11-02T04:13:22.517Z,6.12
2018-11-02T04:14:28.756Z,6.03
2018-11-02T04:15:34.750Z,6.02
2018-11-02T04:16:40.946Z,6.06
2018-11-02T04:17:47.172Z,6.18
2018-11-02T04:18:53.381Z,5.99
2018-11-02T04:19:59.649Z,5.85
2018-11-02T04:21:05.520Z,5.72
2018-11-02T04:22:11.752Z,5.70
2018-11-02T04:23:17.989Z,5.78
2018-11-02T04:24:24.161Z,5.93
2018-11-02T04:25:30.404Z,5.96
2018-11-02T04:26:36.279Z,5.75
2018-11-02T04:27:42.514Z,5.58
2018-11-02T04:28:50.001Z,5.44
2018-11-02T04:29:56.235Z,5.28
2018-11-02T04:31:02.593Z,5.21
2018-11-02T04:32:08.885Z,5.11
2018-11-02T04:33:15.108Z,5.08
2018-11-02T04:34:21.347Z,5.13
2018-11-02T04:35:27.597Z,5.16
2018-11-02T04:36:33.782Z,5.40
2018-11-02T04:37:39.945Z,5.52
2018-11-02T04:38:46.194Z,5.54
2018-11-02T04:39:52.384Z,5.38
2018-11-02T04:40:58.604Z,5.32
2018-11-02T04:42:04.147Z,5.26
2018-11-02T04:43:10.390Z,5.21
2018-11-02T04:44:16.585Z,5.11
2018-11-02T04:45:22.528Z,5.10
2018-11-02T04:46:29.333Z,5.16
2018-11-02T04:47:35.557Z,5.21
2018-11-02T04:48:41.741Z,5.25
2018-11-02T04:49:53.567Z,5.29
2018-11-02T04:51:03.367Z,5.30
2018-11-02T04:52:09.746Z,5.29
2018-11-02T04:53:15.985Z,5.28
2018-11-02T04:54:22.205Z,5.22
2018-11-02T04:55:28.411Z,5.02
2018-11-02T04:56:34.616Z,5.06
2018-11-02T04:57:40.864Z,5.11
2018-11-02T04:58:47.105Z,5.06
2018-11-02T04:59:53.289Z,4.99
2018-11-02T05:00:59.148Z,4.99
2018-11-02T05:02:05.696Z,5.00
2018-11-02T05:03:12.207Z,4.85
2018-11-02T05:04:18.584Z,4.80
2018-11-02T05:05:25.110Z,4.62
2018-11-02T05:06:32.259Z,4.34
2018-11-02T05:07:38.491Z,4.39
2018-11-02T05:08:44.874Z,4.45
2018-11-02T05:09:51.128Z,4.39
2018-11-02T05:10:57.585Z,4.51
2018-11-02T05:12:03.485Z,4.39
2018-11-02T05:13:09.921Z,4.36
2018-11-02T05:14:15.777Z,4.49
2018-11-02T05:15:21.737Z,4.41
2018-11-02T05:16:27.986Z,4.54
2018-11-02T05:17:33.924Z,4.73
2018-11-02T05:18:40.351Z,4.74
2018-11-02T05:19:46.527Z,4.63
2018-11-02T05:20:52.751Z,4.63
2018-11-02T05:21:58.651Z,4.69
2018-11-02T05:23:04.166Z,4.72
2018-11-02T05:24:10.344Z,4.85
2018-11-02T05:25:16.549Z,4.84
2018-11-02T05:26:22.871Z,4.92
2018-11-02T05:27:29.078Z,4.93
2018-11-02T05:28:35.504Z,5.11
2018-11-02T05:29:41.748Z,4.89
2018-11-02T05:30:47.973Z,5.08
2018-11-02T05:31:54.233Z,5.07
2018-11-02T05:33:00.476Z,5.24
2018-11-02T05:34:06.700Z,5.18
2018-11-02T05:35:13.099Z,5.21
2018-11-02T05:36:19.321Z,5.26
2018-11-02T05:37:25.579Z,5.27
2018-11-02T05:38:31.789Z,5.36
2018-11-02T05:39:38.077Z,5.43
2018-11-02T05:40:44.449Z,5.57
2018-11-02T05:41:50.721Z,5.71
2018-11-02T05:42:56.915Z,5.79
2018-11-02T05:44:03.093Z,5.77
2018-11-02T05:45:09.378Z,5.93
2018-11-02T05:46:15.627Z,6.02
2018-11-02T05:47:21.876Z,6.24
2018-11-02T05:48:28.257Z,6.24
2018-11-02T05:49:34.474Z,6.31
2018-11-02T05:50:41.087Z,6.31
2018-11-02T05:51:47.339Z,6.22
2018-11-02T05:52:53.587Z,6.12
2018-11-02T05:53:59.831Z,6.03
2018-11-02T05:55:05.550Z,5.91
2018-11-02T05:56:11.763Z,5.95
2018-11-02T05:57:18.035Z,5.94
2018-11-02T05:58:24.244Z,6.03
2018-11-02T05:59:30.458Z,6.12
2018-11-02T06:00:36.679Z,6.06
2018-11-02T06:01:43.031Z,6.09
2018-11-02T06:02:49.347Z,6.23
2018-11-02T06:03:55.548Z,6.28
2018-11-02T06:05:01.842Z,6.25
2018-11-02T06:06:08.031Z,6.41
2018-11-02T06:07:14.290Z,6.57
2018-11-02T06:08:20.356Z,6.62
2018-11-02T06:09:26.635Z,6.72
2018-11-02T06:10:32.849Z,6.68
2018-11-02T06:11:39.108Z,6.72
2018-11-02T06:12:45.351Z,6.78
2018-11-02T06:13:51.582Z,6.89
2018-11-02T06:14:57.765Z,6.94
2018-11-02T06:16:03.978Z,6.90
2018-11-02T06:17:10.249Z,6.74
2018-11-02T06:18:16.436Z,6.67
2018-11-02T06:19:22.673Z,6.69
2018-11-02T06:20:28.925Z,6.81
2018-11-02T06:21:34.932Z,6.67
2018-11-02T06:22:41.174Z,6.62
2018-11-02T06:23:47.031Z,6.49
2018-11-02T06:24:53.284Z,6.34
2018-11-02T06:25:59.506Z,6.53
2018-11-02T06:27:05.550Z,6.38
2018-11-02T06:28:11.793Z,6.43
2018-11-02T06:29:18.275Z,6.30
2018-11-02T06:30:25.129Z,6.42
2018-11-02T06:31:31.535Z,6.40
2018-11-02T06:32:37.782Z,6.50
2018-11-02T06:33:44.175Z,6.68
2018-11-02T06:34:50.365Z,6.74
2018-11-02T06:35:57.826Z,6.71
2018-11-02T06:37:03.717Z,6.74
2018-11-02T06:38:09.899Z,6.73
2018-11-02T06:39:16.130Z,6.66
2018-11-02T06:40:22.404Z,6.88
2018-11-02T06:41:28.651Z,7.00
2018-11-02T06:42:35.066Z,7.12
2018-11-02T06:43:41.346Z,7.08
2018-11-02T06:44:47.618Z,7.16
2018-11-02T06:45:53.983Z,7.16
2018-11-02T06:47:00.257Z,7.08
2018-11-02T06:48:05.781Z,7.01
2018-11-02T06:49:12.012Z,6.97
2018-11-02T06:50:18.199Z,7.19
2018-11-02T06:51:24.726Z,7.27
2018-11-02T06:52:31.004Z,7.32
2018-11-02T06:53:37.214Z,7.41
2018-11-02T06:54:43.466Z,7.45
2018-11-02T06:55:56.665Z,7.45
2018-11-02T06:57:03.865Z,7.40
2018-11-02T06:58:10.088Z,7.37
2018-11-02T06:59:16.491Z,7.42
2018-11-02T07:00:22.827Z,7.34
2018-11-02T07:01:29.266Z,7.32
2018-11-02T07:02:35.521Z,7.12
2018-11-02T07:03:41.786Z,7.16
2018-11-02T07:04:47.995Z,7.10
2018-11-02T07:05:54.183Z,7.21
2018-11-02T07:07:00.426Z,7.15
2018-11-02T07:08:06.386Z,7.22
2018-11-02T07:09:12.267Z,7.18
2018-11-02T07:10:18.451Z,7.23
2018-11-02T07:11:24.686Z,7.24
2018-11-02T07:12:30.972Z,7.05
2018-11-02T07:13:37.201Z,7.04
2018-11-02T07:14:43.451Z,7.09
2018-11-02T07:15:49.879Z,7.00
2018-11-02T07:16:57.904Z,6.92
2018-11-02T07:18:04.595Z,6.93
2018-11-02T07:19:10.838Z,6.83
2018-11-02T07:20:17.133Z,6.84
2018-11-02T07:21:23.855Z,6.77
2018-11-02T07:22:30.254Z,6.87
2018-11-02T07:23:36.443Z,7.10
2018-11-02T07:24:42.664Z,7.29
2018-11-02T07:25:48.885Z,7.35
2018-11-02T07:26:55.190Z,7.48
2018-11-02T07:28:01.560Z,7.39
2018-11-02T07:29:07.525Z,7.56
2018-11-02T07:30:13.595Z,7.67
2018-11-02T07:31:19.460Z,7.80
2018-11-02T07:32:25.684Z,7.90
2018-11-02T07:33:31.928Z,7.88
2018-11-02T07:34:38.358Z,7.84
2018-11-02T07:35:44.575Z,7.88
2018-11-02T07:36:50.864Z,8.00
2018-11-02T07:37:57.110Z,7.92
2018-11-02T07:39:03.122Z,7.95
2018-11-02T07:40:08.737Z,8.08
2018-11-02T07:41:15.192Z,8.11
2018-11-02T07:42:21.538Z,8.16
2018-11-02T07:43:27.760Z,8.21
2018-11-02T07:44:33.951Z,8.23
2018-11-02T07:45:40.182Z,8.29
2018-11-02T07:46:46.484Z,8.42
2018-11-02T07:47:52.886Z,8.48
2018-11-02T07:48:59.988Z,8.56
2018-11-02T07:50:06.308Z,8.59
2018-11-02T07:51:12.937Z,8.58
2018-11-02T07:52:19.152Z,8.60
2018-11-02T07:53:25.380Z,8.66
2018-11-02T07:54:31.638Z,8.68
2018-11-02T07:55:37.823Z,8.67
2018-11-02T07:56:43.988Z,8.51
2018-11-02T07:57:50.197Z,8.71
2018-11-02T07:58:56.382Z,8.87
2018-11-02T08:00:02.579Z,8.90
2018-11-02T08:01:08.822Z,8.85
2018-11-02T08:02:15.241Z,8.82
2018-11-02T08:03:22.181Z,8.76
2018-11-02T08:04:28.420Z,8.75
2018-11-02T08:05:34.614Z,8.85
2018-11-02T08:06:40.841Z,8.95
2018-11-02T08:07:47.038Z,8.99
2018-11-02T08:08:52.911Z,8.99
2018-11-02T08:10:00.127Z,9.11
2018-11-02T08:11:06.991Z,9.19
2018-11-02T08:12:13.265Z,9.20
2018-11-02T08:13:19.455Z,9.25
2018-11-02T08:14:25.310Z,9.45
2018-11-02T08:15:31.141Z,9.67
2018-11-02T08:16:37.306Z,9.79
2018-11-02T08:17:43.652Z,9.84
2018-11-02T08:18:50.030Z,9.81
2018-11-02T08:19:56.437Z,9.73
2018-11-02T08:21:02.635Z,9.75
2018-11-02T08:22:08.855Z,9.78
2018-11-02T08:23:15.037Z,9.83
2018-11-02T08:24:21.255Z,9.96
2018-11-02T08:25:27.690Z,10.06
2018-11-02T08:26:33.912Z,10.14
2018-11-02T08:27:40.101Z,10.15
2018-11-02T08:28:46.822Z,10.10
2018-11-02T08:29:53.044Z,10.13
2018-11-02T08:30:59.278Z,10.25
2018-11-02T08:32:05.211Z,10.29
2018-11-02T08:33:11.648Z,10.36
2018-11-02T08:34:17.891Z,10.37
2018-11-02T08:35:24.099Z,10.40
2018-11-02T08:36:30.318Z,10.35
2018-11-02T08:37:36.561Z,10.42
2018-11-02T08:38:42.795Z,10.32
2018-11-02T08:39:48.986Z,10.40
2018-11-02T08:40:55.208Z,10.50
2018-11-02T08:42:02.365Z,10.58
2018-11-02T08:43:10.732Z,10.68
2018-11-02T08:44:16.894Z,10.76
2018-11-02T08:45:23.480Z,10.74
2018-11-02T08:46:29.741Z,10.87
2018-11-02T08:47:36.445Z,10.85
2018-11-02T08:48:42.733Z,10.96
2018-11-02T08:49:48.578Z,11.09
2018-11-02T08:50:54.787Z,11.00
2018-11-02T08:52:01.054Z,10.98
2018-11-02T08:53:07.296Z,11.10
2018-11-02T08:54:13.491Z,11.13
2018-11-02T08:55:19.679Z,11.18
2018-11-02T08:56:25.889Z,11.22
2018-11-02T08:57:32.120Z,11.25
2018-11-02T08:58:38.690Z,11.32
2018-11-02T08:59:45.013Z,11.36
2018-11-02T09:00:57.226Z,11.38
2018-11-02T09:02:03.758Z,11.36
2018-11-02T09:03:12.920Z,11.33
2018-11-02T09:04:25.195Z,11.35
2018-11-02T09:05:31.487Z,11.36
2018-11-02T09:06:37.699Z,11.36
2018-11-02T09:07:43.900Z,11.37
2018-11-02T09:08:50.135Z,11.26
2018-11-02T09:09:56.005Z,11.26
2018-11-02T09:11:09.147Z,11.35
2018-11-02T09:12:23.230Z,11.40
2018-11-02T09:13:29.484Z,11.46
2018-11-02T09:14:35.688Z,11.37
2018-11-02T09:15:41.899Z,11.29
2018-11-02T09:16:48.128Z,11.27
2018-11-02T09:17:54.312Z,11.23
2018-11-02T09:19:00.513Z,11.26
2018-11-02T09:20:06.236Z,11.24
2018-11-02T09:21:12.446Z,11.27
2018-11-02T09:22:18.675Z,11.12
2018-11-02T09:23:24.976Z,11.14
2018-11-02T09:24:35.032Z,11.08
2018-11-02T09:25:44.407Z,11.03
2018-11-02T09:26:50.639Z,11.08
2018-11-02T09:27:56.660Z,11.14
2018-11-02T09:29:03.098Z,11.19
2018-11-02T09:30:08.781Z,11.18
2018-11-02T09:31:15.645Z,11.20
2018-11-02T09:32:21.857Z,11.22
2018-11-02T09:33:28.089Z,11.09
2018-11-02T09:34:34.230Z,11.24
2018-11-02T09:35:40.421Z,11.24
2018-11-02T09:36:46.649Z,11.16
2018-11-02T09:37:52.743Z,11.21
2018-11-02T09:38:58.955Z,11.22
2018-11-02T09:40:04.639Z,11.30
2018-11-02T09:41:10.776Z,11.35
2018-11-02T09:42:17.003Z,11.28
2018-11-02T09:43:23.918Z,11.47
2018-11-02T09:44:30.445Z,11.49
2018-11-02T09:45:39.169Z,11.36
2018-11-02T09:46:46.119Z,11.52
2018-11-02T09:47:52.369Z,11.54
2018-11-02T09:48:58.244Z,11.55
2018-11-02T09:50:03.781Z,11.59
2018-11-02T09:51:09.696Z,11.60
2018-11-02T09:52:15.913Z,11.41
2018-11-02T09:53:22.143Z,11.46
2018-11-02T09:54:28.354Z,11.58
2018-11-02T09:55:34.594Z,11.67
2018-11-02T09:56:40.830Z,11.47
2018-11-02T09:57:46.888Z,11.60
2018-11-02T09:58:53.268Z,11.59
2018-11-02T09:59:59.702Z,11.71
2018-11-02T10:01:05.622Z,11.65
2018-11-02T10:02:12.503Z,11.78
2018-11-02T10:03:18.965Z,11.69
2018-11-02T10:04:25.197Z,11.83
2018-11-02T10:05:31.085Z,11.87
2018-11-02T10:06:37.339Z,11.96
2018-11-02T10:07:43.550Z,12.08
2018-11-02T10:08:49.751Z,11.98
2018-11-02T10:09:56.044Z,11.91
2018-11-02T10:11:01.917Z,12.00
2018-11-02T10:12:07.825Z,12.06
2018-11-02T10:13:13.857Z,12.07
2018-11-02T10:14:19.586Z,12.05
2018-11-02T10:15:25.808Z,12.04
2018-11-02T10:16:32.283Z,11.90
2018-11-02T10:17:38.677Z,11.98
2018-11-02T10:18:45.160Z,12.03
2018-11-02T10:19:51.249Z,11.99
2018-11-02T10:20:57.663Z,12.12
2018-11-02T10:22:03.908Z,12.29
2018-11-02T10:23:10.537Z,12.38
2018-11-02T10:24:16.658Z,12.42
2018-11-02T10:25:23.183Z,12.49
2018-11-02T10:26:29.030Z,12.67
2018-11-02T10:27:34.589Z,12.63
2018-11-02T10:28:40.151Z,12.70
2018-11-02T10:29:45.788Z,12.77
2018-11-02T10:30:51.655Z,12.76
2018-11-02T10:31:57.255Z,12.77
2018-11-02T10:33:02.769Z,12.78
2018-11-02T10:34:09.080Z,12.75
2018-11-02T10:35:14.675Z,12.69
2018-11-02T10:36:20.357Z,12.71
2018-11-02T10:37:26.148Z,12.81
2018-11-02T10:38:32.959Z,12.87
2018-11-02T10:39:38.955Z,12.94
2018-11-02T10:40:44.776Z,13.00
2018-11-02T10:41:50.617Z,12.98
2018-11-02T10:42:56.239Z,13.01
2018-11-02T10:44:01.482Z,13.12
2018-11-02T10:45:07.054Z,13.08
2018-11-02T10:46:13.159Z,13.06
2018-11-02T10:47:18.713Z,12.88
2018-11-02T10:48:24.907Z,13.00
2018-11-02T10:49:31.664Z,12.99
2018-11-02T10:50:37.725Z,12.93
2018-11-02T10:51:44.173Z,12.97
2018-11-02T10:52:50.566Z,12.79
2018-11-02T10:53:56.584Z,12.64
2018-11-02T10:55:02.836Z,12.47
2018-11-02T10:56:09.090Z,12.62
2018-11-02T10:57:15.010Z,12.81
2018-11-02T10:58:20.607Z,12.88
2018-11-02T10:59:26.507Z,12.76
2018-11-02T11:00:32.541Z,12.87
2018-11-02T11:01:54.273Z,12.98
2018-11-02T11:03:00.610Z,13.00
2018-11-02T11:04:06.514Z,12.93
2018-11-02T11:05:13.105Z,12.79
2018-11-02T11:06:19.244Z,12.93
2018-11-02T11:07:25.526Z,12.94
2018-11-02T11:08:31.783Z,12.81
2018-11-02T11:09:43.864Z,12.84
2018-11-02T11:10:55.408Z,12.88
2018-11-02T11:12:01.400Z,12.84
2018-11-02T11:13:07.851Z,12.73
2018-11-02T11:14:13.719Z,12.77
2018-11-02T11:15:19.569Z,12.71
2018-11-02T11:16:25.443Z,12.91
2018-11-02T11:17:31.712Z,12.91
2018-11-02T11:18:37.613Z,12.70
2018-11-02T11:19:43.832Z,12.83
2018-11-02T11:20:50.053Z,13.01
2018-11-02T11:21:56.498Z,12.99
2018-11-02T11:23:02.718Z,13.19
2018-11-02T11:24:08.533Z,13.18
2018-11-02T11:25:14.418Z,13.36
2018-11-02T11:26:20.689Z,13.37
2018-11-02T11:27:27.160Z,13.26
2018-11-02T11:28:33.001Z,13.31
2018-11-02T11:29:39.264Z,13.50
2018-11-02T11:30:45.105Z,13.53
2018-11-02T11:31:51.466Z,13.59
2018-11-02T11:32:57.305Z,13.51
2018-11-02T11:34:03.135Z,13.66
2018-11-02T11:35:08.949Z,13.79
2018-11-02T11:36:14.831Z,13.81
2018-11-02T11:37:20.749Z,13.69
2018-11-02T11:38:27.196Z,13.74
2018-11-02T11:39:33.394Z,13.89
2018-11-02T11:40:39.485Z,13.62
2018-11-02T11:41:45.701Z,13.77
2018-11-02T11:42:51.912Z,13.76
2018-11-02T11:43:57.991Z,13.72
2018-11-02T11:45:03.302Z,13.92
2018-11-02T11:46:09.577Z,14.15
2018-11-02T11:47:15.826Z,14.04
2018-11-02T11:48:22.067Z,13.86
2018-11-02T11:49:28.337Z,14.04
2018-11-02T11:50:34.564Z,14.10
2018-11-02T11:51:40.825Z,14.15
2018-11-02T11:52:49.835Z,14.04
2018-11-02T11:53:55.718Z,13.84
2018-11-02T11:55:01.602Z,13.97
2018-11-02T11:56:07.126Z,14.03
2018-11-02T11:57:12.961Z,14.00
2018-11-02T11:58:19.173Z,14.00
2018-11-02T11:59:25.023Z,13.88
2018-11-02T12:00:34.900Z,13.84
2018-11-02T12:01:43.428Z,13.91
2018-11-02T12:02:48.932Z,13.95
2018-11-02T12:03:55.048Z,13.97
2018-11-02T12:05:01.361Z,13.98
2018-11-02T12:06:07.761Z,14.15
2018-11-02T12:07:13.648Z,14.24
2018-11-02T12:08:19.579Z,14.10
2018-11-02T12:09:25.826Z,13.98
2018-11-02T12:10:32.135Z,14.19
2018-11-02T12:11:37.819Z,14.29
2018-11-02T12:12:50.449Z,14.40
2018-11-02T12:13:56.012Z,14.53
2018-11-02T12:15:03.185Z,14.67
2018-11-02T12:16:09.667Z,14.68
2018-11-02T12:17:15.921Z,14.69
2018-11-02T12:18:21.888Z,14.66
2018-11-02T12:19:27.757Z,14.79
2018-11-02T12:20:33.609Z,14.73
2018-11-02T12:21:39.877Z,14.79
2018-11-02T12:22:47.196Z,14.81
2018-11-02T12:23:53.525Z,14.78
2018-11-02T12:25:00.571Z,14.63
2018-11-02T12:26:08.228Z,14.45
2018-11-02T12:27:14.310Z,14.46
2018-11-02T12:28:20.660Z,14.65
2018-11-02T12:29:27.036Z,14.61
2018-11-02T12:30:33.236Z,14.78
2018-11-02T12:31:39.731Z,14.95
2018-11-02T12:32:45.971Z,15.01
2018-11-02T12:33:52.211Z,14.98
2018-11-02T12:34:58.435Z,15.09
2018-11-02T12:36:04.030Z,15.21
2018-11-02T12:37:10.378Z,15.21
2018-11-02T12:38:16.726Z,15.30
2018-11-02T12:39:23.583Z,15.33
2018-11-02T12:40:30.773Z,15.40
2018-11-02T12:41:37.158Z,15.43
2018-11-02T12:42:43.389Z,15.50
2018-11-02T12:43:49.645Z,15.18
2018-11-02T12:44:56.660Z,15.05
2018-11-02T12:46:02.842Z,14.94
2018-11-02T12:47:09.076Z,14.61
2018-11-02T12:48:15.354Z,14.53
2018-11-02T12:49:21.968Z,14.27
2018-11-02T12:50:28.322Z,14.19
2018-11-02T12:51:34.727Z,14.16
2018-11-02T12:52:40.748Z,14.41
2018-11-02T12:53:47.060Z,14.50
2018-11-02T12:54:53.449Z,14.42
2018-11-02T12:55:59.670Z,14.52
2018-11-02T12:57:05.870Z,14.65
2018-11-02T12:58:12.142Z,14.87
2018-11-02T12:59:18.394Z,14.93
2018-11-02T13:00:24.615Z,15.02
2018-11-02T13:01:30.815Z,14.87
2018-11-02T13:02:36.808Z,15.01
2018-11-02T13:03:43.069Z,15.30
2018-11-02T13:04:49.271Z,15.54
2018-11-02T13:05:55.547Z,15.80
2018-11-02T13:07:02.185Z,15.92
2018-11-02T13:08:08.232Z,16.00
2018-11-02T13:09:14.710Z,15.66
2018-11-02T13:10:21.114Z,15.59
2018-11-02T13:11:27.416Z,15.74
2018-11-02T13:12:33.711Z,15.96
2018-11-02T13:13:39.949Z,15.79
2018-11-02T13:14:46.196Z,15.75
2018-11-02T13:15:52.428Z,15.84
2018-11-02T13:16:59.078Z,16.13
2018-11-02T13:18:05.127Z,16.18
2018-11-02T13:19:11.550Z,16.33
2018-11-02T13:20:17.827Z,16.44
2018-11-02T13:21:24.806Z,16.41
2018-11-02T13:22:31.541Z,15.73
2018-11-02T13:23:37.854Z,16.06
2018-11-02T13:24:44.729Z,16.26
2018-11-02T13:25:54.938Z,16.33
2018-11-02T13:27:01.335Z,16.39
2018-11-02T13:28:07.567Z,16.53
2018-11-02T13:29:13.785Z,16.66
2018-11-02T13:30:20.163Z,16.86
2018-11-02T13:31:26.673Z,16.38
2018-11-02T13:32:33.003Z,16.46
2018-11-02T13:33:39.509Z,16.63
2018-11-02T13:34:47.335Z,16.56
2018-11-02T13:35:52.850Z,16.66
2018-11-02T13:36:59.521Z,16.73
2018-11-02T13:38:05.546Z,16.20
2018-11-02T13:39:11.801Z,16.00
2018-11-02T13:40:18.721Z,15.88
2018-11-02T13:41:25.101Z,16.00
2018-11-02T13:42:31.455Z,16.02
2018-11-02T13:43:37.763Z,16.13
2018-11-02T13:44:44.185Z,16.17
2018-11-02T13:45:50.437Z,16.18
2018-11-02T13:46:56.661Z,16.06
2018-11-02T13:48:02.876Z,15.62
2018-11-02T13:49:09.145Z,15.48
2018-11-02T13:50:15.116Z,15.41
2018-11-02T13:51:21.546Z,14.91
2018-11-02T13:52:27.954Z,15.12
2018-11-02T13:53:34.248Z,15.31
2018-11-02T13:54:40.661Z,14.97
2018-11-02T13:55:46.903Z,15.38
2018-11-02T13:56:53.249Z,15.67
2018-11-02T13:58:00.729Z,15.68
2018-11-02T13:59:06.964Z,15.76
2018-11-02T14:00:13.193Z,15.94
2018-11-02T14:01:19.519Z,16.07
2018-11-02T14:02:25.907Z,16.13
2018-11-02T14:03:32.149Z,16.21
2018-11-02T14:04:38.366Z,16.26
2018-11-02T14:05:44.648Z,16.25
2018-11-02T14:06:50.904Z,16.16
2018-11-02T14:07:57.239Z,16.06
2018-11-02T14:09:03.238Z,15.81
2018-11-02T14:10:08.825Z,15.68
2018-11-02T14:11:15.074Z,15.74
2018-11-02T14:12:21.323Z,15.56
2018-11-02T14:13:27.829Z,15.52
2018-11-02T14:14:34.114Z,15.46
2018-11-02T14:15:40.350Z,15.32
2018-11-02T14:16:46.309Z,15.02
2018-11-02T14:17:52.576Z,14.95
2018-11-02T14:18:58.814Z,15.16
2018-11-02T14:20:04.368Z,14.99
2018-11-02T14:21:10.577Z,14.98
2018-11-02T14:22:16.803Z,15.06
2018-11-02T14:23:23.005Z,15.20
2018-11-02T14:24:29.271Z,15.29
2018-11-02T14:25:35.706Z,15.34
2018-11-02T14:26:41.930Z,15.11
2018-11-02T14:27:48.204Z,15.05
2018-11-02T14:28:54.439Z,14.79
2018-11-02T14:30:00.745Z,14.87
2018-11-02T14:31:06.644Z,14.81